Time;durP1;ratioP1;P1;durP2;ratioP2;P2;SDS_P1;SDS_P2;PMS_P1;PMS_P2;Temp;Humidity;BMP_temperature;BMP_pressure;BME280_temperature;BME280_humidity;BME280_pressure;Samples;Min_cycle;Max_cycle;Signal;HPM_P1;HPM_P2
2022/05/11 14:25:30;;;;;;;9.65;2.95;;;27.70;93.10;;;;;;4724633;27;10002201;-65
2022/05/11 14:27:56;;;;;;;10.88;2.60;;;28.10;82.60;;;;;;5045632;28;20029;-65
2022/05/11 14:30:23;;;;;;;10.68;2.78;;;28.40;85.30;;;;;;5053916;28;20608;-66
2022/05/11 14:32:49;;;;;;;7.63;2.80;;;28.70;83.40;;;;;;5059719;28;20053;-65
2022/05/11 14:35:20;;;;;;;5.25;2.95;;;28.70;59.20;;;;;;5052834;28;20148;-65
2022/05/11 14:37:46;;;;;;;6.65;2.50;;;28.70;58.50;;;;;;5051095;28;20361;-65
2022/05/11 14:40:19;;;;;;;4.55;2.55;;;28.70;58.80;;;;;;5050669;28;20718;-66
2022/05/11 14:42:45;;;;;;;7.47;2.60;;;28.80;59.00;;;;;;5054870;28;20056;-65
2022/05/11 14:45:11;;;;;;;10.13;2.70;;;28.80;58.50;;;;;;5059706;28;20768;-66
2022/05/11 14:47:39;;;;;;;12.20;2.72;;;28.80;58.30;;;;;;5048233;28;20025;-66
2022/05/11 14:50:07;;;;;;;8.55;2.63;;;28.80;58.20;;;;;;5033094;28;20072;-66
2022/05/11 14:52:34;;;;;;;2.80;2.47;;;28.80;58.60;;;;;;5033347;28;20428;-66
2022/05/11 14:55:00;;;;;;;9.90;2.97;;;28.80;58.50;;;;;;5035864;28;20428;-66
2022/05/11 15:02:56;;;;;;;8.95;2.80;;;28.90;58.10;;;;;;5035779;28;20442;-65
2022/05/11 15:05:21;;;;;;;6.20;2.53;;;29.10;57.90;;;;;;5039794;28;20075;-66
2022/05/11 15:07:48;;;;;;;4.68;3.05;;;29.10;56.70;;;;;;5036197;28;20523;-66
2022/05/11 15:10:15;;;;;;;4.22;2.50;;;28.80;57.60;;;;;;5027496;28;20459;-66
2022/05/11 15:15:25;;;;;;;8.25;2.47;;;28.50;59.30;;;;;;5035985;28;20583;-66
2022/05/11 15:17:53;;;;;;;7.10;2.65;;;28.60;57.80;;;;;;5037974;28;20091;-66
2022/05/11 15:20:21;;;;;;;8.65;2.90;;;28.70;57.30;;;;;;5033201;28;20168;-65
2022/05/11 15:22:48;;;;;;;8.43;2.65;;;28.70;57.00;;;;;;5033504;28;20126;-65
2022/05/11 15:25:16;;;;;;;13.52;2.95;;;28.60;56.30;;;;;;5036363;28;20052;-66
2022/05/11 15:27:44;;;;;;;6.38;3.00;;;28.50;56.00;;;;;;5033456;28;20113;-65
2022/05/11 15:30:12;;;;;;;8.10;2.90;;;28.40;57.00;;;;;;5033711;28;20082;-66
2022/05/11 15:32:38;;;;;;;10.77;2.60;;;28.40;56.50;;;;;;5039147;28;20036;-65
2022/05/11 15:35:05;;;;;;;6.07;2.50;;;28.30;56.10;;;;;;5033120;28;20383;-65
2022/05/11 15:37:30;;;;;;;8.23;2.85;;;28.30;55.40;;;;;;5023500;28;20033;-65
2022/05/11 15:39:56;;;;;;;5.65;2.80;;;28.30;56.20;;;;;;5021409;28;20029;-65
2022/05/11 15:42:28;;;;;;;7.70;3.05;;;28.30;57.70;;;;;;5024323;28;20258;-65
2022/05/11 15:44:56;;;;;;;8.40;2.72;;;28.20;57.90;;;;;;5020503;28;20033;-65
2022/05/11 15:47:22;;;;;;;12.75;2.50;;;;;;;;;;5021785;28;20034;-65
2022/05/11 15:49:48;;;;;;;8.50;2.55;;;28.00;55.40;;;;;;5023079;28;20057;-66
2022/05/11 15:52:18;;;;;;;7.93;2.40;;;28.00;55.30;;;;;;5019756;28;20056;-65
2022/05/11 15:54:44;;;;;;;9.27;2.20;;;27.90;54.00;;;;;;5017187;28;20455;-66
2022/05/11 15:57:09;;;;;;;8.50;2.40;;;27.50;54.20;;;;;;5025580;28;20030;-65
2022/05/11 15:59:35;;;;;;;5.60;2.70;;;27.30;54.10;;;;;;5015601;28;20071;-66
2022/05/11 16:02:02;;;;;;;6.32;2.40;;;27.20;55.40;;;;;;5020169;28;20025;-66
2022/05/11 16:04:28;;;;;;;10.38;2.40;;;27.20;56.00;;;;;;5023338;28;20033;-65
2022/05/11 16:06:54;;;;;;;20.20;2.88;;;27.30;56.60;;;;;;5023870;28;20025;-66
2022/05/11 16:09:19;;;;;;;7.88;2.80;;;27.30;56.10;;;;;;5014973;28;20033;-66
2022/05/11 16:11:45;;;;;;;18.85;2.70;;;27.40;57.20;;;;;;5015299;28;20022;-66
2022/05/11 16:14:13;;;;;;;6.72;2.55;;;27.50;57.50;;;;;;5021288;28;20033;-66
2022/05/11 16:16:41;;;;;;;11.02;2.58;;;27.50;58.00;;;;;;5018242;28;20042;-66
2022/05/11 16:21:52;;;;;;;9.38;2.70;;;27.50;56.00;;;;;;5015788;28;20162;-66
2022/05/11 16:24:19;;;;;;;8.95;2.78;;;27.40;56.30;;;;;;5023806;28;20056;-66
2022/05/11 16:26:46;;;;;;;4.85;2.30;;;27.40;56.00;;;;;;5021881;28;20219;-66
2022/05/11 16:29:16;;;;;;;9.68;2.78;;;27.30;56.10;;;;;;5022849;28;20090;-66
2022/05/11 16:31:43;;;;;;;7.82;2.60;;;27.30;58.10;;;;;;5022228;28;20025;-66
2022/05/11 16:34:10;;;;;;;6.40;2.20;;;27.10;61.90;;;;;;5027565;28;20529;-66
2022/05/11 16:36:35;;;;;;;5.85;2.30;;;27.10;61.90;;;;;;5025336;28;20079;-65
2022/05/11 16:39:01;;;;;;;12.65;2.75;;;26.90;58.90;;;;;;4669259;28;10000067;-65
2022/05/11 16:41:26;;;;;;;5.93;2.55;;;26.90;60.30;;;;;;5018640;28;20040;-65
2022/05/11 16:43:53;;;;;;;8.20;2.47;;;26.80;58.40;;;;;;5017190;28;20630;-65
2022/05/11 16:46:19;;;;;;;8.80;2.30;;;26.70;55.10;;;;;;5019773;28;20599;-65
2022/05/11 16:48:45;;;;;;;7.35;2.22;;;26.70;55.40;;;;;;5018822;28;20055;-66
2022/05/11 16:51:10;;;;;;;8.27;2.40;;;26.60;56.00;;;;;;5023204;28;20028;-65
2022/05/11 16:53:36;;;;;;;10.95;3.15;;;26.50;55.10;;;;;;5023420;28;20032;-66
2022/05/11 16:56:03;;;;;;;9.63;2.35;;;26.40;56.20;;;;;;5021152;28;20124;-65
2022/05/11 16:58:29;;;;;;;3.00;1.83;;;26.30;56.60;;;;;;5010543;28;20767;-65
2022/05/11 17:00:57;;;;;;;4.82;2.28;;;26.20;55.30;;;;;;5016689;28;20114;-66
2022/05/11 17:03:24;;;;;;;6.47;2.10;;;26.20;55.90;;;;;;5021922;28;20767;-65
2022/05/11 17:05:50;;;;;;;9.13;2.15;;;26.10;54.90;;;;;;5022114;28;20025;-66
2022/05/11 17:08:16;;;;;;;8.00;2.00;;;26.00;54.70;;;;;;5019108;28;20525;-66
2022/05/11 17:10:42;;;;;;;8.00;1.85;;;26.00;54.90;;;;;;5014432;28;20052;-66
2022/05/11 17:13:09;;;;;;;9.23;2.10;;;25.80;54.60;;;;;;5023960;28;20034;-66
2022/05/11 17:15:37;;;;;;;7.25;2.10;;;25.80;55.20;;;;;;5020759;28;20108;-66
2022/05/11 17:18:03;;;;;;;7.90;2.45;;;25.70;54.90;;;;;;5024311;28;20030;-66
2022/05/11 17:20:35;;;;;;;11.05;2.10;;;25.70;55.30;;;;;;5011600;28;20441;-66
2022/05/11 17:23:02;;;;;;;7.13;2.03;;;25.70;55.70;;;;;;5022916;28;20053;-66
2022/05/11 17:25:28;;;;;;;9.45;2.35;;;25.60;55.90;;;;;;5021565;28;20126;-66
2022/05/11 17:27:54;;;;;;;7.47;2.10;;;25.50;56.40;;;;;;5021638;28;20030;-65
2022/05/11 17:30:20;;;;;;;9.35;1.88;;;25.40;56.30;;;;;;5025233;28;20025;-65
2022/05/11 17:32:46;;;;;;;5.65;2.40;;;25.40;57.00;;;;;;5019341;28;20029;-66
2022/05/11 17:35:13;;;;;;;5.10;2.47;;;25.20;56.40;;;;;;5023019;28;20042;-66
2022/05/11 17:37:40;;;;;;;10.48;2.42;;;25.10;55.90;;;;;;5022177;28;20489;-65
2022/05/11 17:40:06;;;;;;;13.32;2.10;;;25.00;56.80;;;;;;5020304;28;20033;-66
2022/05/11 17:42:34;;;;;;;7.88;2.08;;;24.90;56.00;;;;;;5020022;28;20032;-65
2022/05/11 17:45:00;;;;;;;11.05;1.98;;;24.80;56.50;;;;;;5021619;28;20029;-66
2022/05/11 17:47:26;;;;;;;8.40;1.88;;;24.70;56.30;;;;;;5022809;28;20022;-66
2022/05/11 17:49:51;;;;;;;3.25;1.73;;;24.70;55.40;;;;;;5018849;28;20032;-66
2022/05/11 17:52:19;;;;;;;5.15;1.65;;;24.60;55.50;;;;;;5021786;28;20025;-65
2022/05/11 17:54:45;;;;;;;7.05;2.15;;;24.60;56.00;;;;;;5022231;28;20378;-64
2022/05/11 17:57:10;;;;;;;10.32;2.70;;;24.50;55.70;;;;;;5022467;28;20029;-66
2022/05/11 17:59:36;;;;;;;7.38;2.10;;;24.50;55.80;;;;;;5017292;28;20501;-65
2022/05/11 18:02:01;;;;;;;6.65;2.15;;;24.40;56.50;;;;;;5012320;28;20492;-65
2022/05/11 18:04:27;;;;;;;6.85;1.98;;;24.40;57.10;;;;;;5020933;28;20025;-65
2022/05/11 18:06:53;;;;;;;4.75;2.30;;;24.30;57.20;;;;;;5023432;28;20343;-65
2022/05/11 18:09:18;;;;;;;7.70;2.10;;;24.20;57.60;;;;;;5017430;28;20057;-64
2022/05/11 18:11:44;;;;;;;7.57;2.00;;;24.20;58.70;;;;;;5013514;28;20095;-64
2022/05/11 18:14:09;;;;;;;17.13;2.38;;;24.10;58.10;;;;;;5018817;28;20033;-64
2022/05/11 18:16:35;;;;;;;4.82;1.80;;;24.00;59.20;;;;;;5020065;28;20037;-64
2022/05/11 18:19:03;;;;;;;10.18;2.08;;;24.00;60.30;;;;;;5008820;28;20060;-64
2022/05/11 18:21:29;;;;;;;6.75;2.00;;;23.90;61.10;;;;;;5023109;28;20441;-64
2022/05/11 18:23:55;;;;;;;4.38;2.10;;;23.90;61.60;;;;;;5017000;28;20054;-65
2022/05/11 18:26:20;;;;;;;5.97;1.85;;;23.80;62.70;;;;;;5010810;28;20037;-65
2022/05/11 18:28:47;;;;;;;5.90;1.95;;;23.70;64.30;;;;;;5019572;28;20250;-65
2022/05/11 18:31:13;;;;;;;9.43;1.90;;;23.70;63.40;;;;;;5022004;28;20102;-65
2022/05/11 18:33:39;;;;;;;6.25;1.92;;;23.60;63.30;;;;;;5018684;28;20034;-65
2022/05/11 18:36:05;;;;;;;9.57;2.05;;;23.60;63.60;;;;;;5012163;28;20486;-64
2022/05/11 18:38:30;;;;;;;6.50;1.90;;;23.50;65.60;;;;;;5016579;28;20087;-65
2022/05/11 18:40:57;;;;;;;6.50;2.08;;;23.40;66.40;;;;;;5021107;28;20034;-65
2022/05/11 18:43:23;;;;;;;3.75;1.73;;;23.40;67.00;;;;;;5020999;28;20034;-65
2022/05/11 18:45:54;;;;;;;9.13;1.80;;;23.30;67.10;;;;;;5020938;28;20603;-64
2022/05/11 18:48:20;;;;;;;5.85;2.20;;;23.20;67.30;;;;;;5019516;28;20465;-65
2022/05/11 18:50:46;;;;;;;6.20;2.55;;;23.20;67.90;;;;;;5016773;28;20088;-65
2022/05/11 18:53:12;;;;;;;6.30;2.10;;;23.10;68.60;;;;;;5016059;28;20041;-65
2022/05/11 18:55:37;;;;;;;8.15;2.25;;;23.00;67.70;;;;;;5021761;28;20028;-64
2022/05/11 18:58:03;;;;;;;3.90;1.90;;;22.90;68.40;;;;;;5021768;28;20092;-65
2022/05/11 19:00:34;;;;;;;2.90;1.70;;;22.90;69.10;;;;;;5019595;28;20033;-65
2022/05/11 19:03:00;;;;;;;2.85;1.83;;;22.80;70.40;;;;;;5020298;28;20033;-64
2022/05/11 19:05:26;;;;;;;7.45;2.22;;;22.70;69.40;;;;;;5020624;28;20037;-64
2022/05/11 19:07:53;;;;;;;7.18;1.90;;;22.60;61.40;;;;;;5015969;28;20057;-64
2022/05/11 19:10:21;;;;;;;6.22;1.98;;;22.50;61.90;;;;;;5013327;28;20528;-64
2022/05/11 19:12:47;;;;;;;7.28;1.80;;;22.40;62.00;;;;;;5019681;28;20025;-64
2022/05/11 19:15:15;;;;;;;2.65;1.63;;;22.30;61.80;;;;;;5024941;28;20499;-64
2022/05/11 19:17:42;;;;;;;6.90;2.20;;;22.30;61.90;;;;;;5025589;28;20030;-64
2022/05/11 19:20:10;;;;;;;8.45;1.70;;;22.20;61.70;;;;;;5020913;28;20044;-65
2022/05/11 19:22:35;;;;;;;5.68;1.60;;;22.20;62.10;;;;;;5022051;28;20033;-64
2022/05/11 19:25:01;;;;;;;7.45;1.40;;;22.10;61.70;;;;;;5021210;28;20748;-64
2022/05/11 19:27:27;;;;;;;5.55;1.70;;;22.10;61.30;;;;;;5023814;28;20108;-65
2022/05/11 19:29:52;;;;;;;4.90;1.60;;;22.10;61.80;;;;;;5021447;28;20033;-64
2022/05/11 19:32:19;;;;;;;9.05;1.77;;;22.00;61.60;;;;;;5023591;28;20052;-64
2022/05/11 19:34:44;;;;;;;4.78;1.55;;;22.00;61.70;;;;;;5026272;28;20121;-64
2022/05/11 19:37:10;;;;;;;3.67;1.60;;;22.00;61.50;;;;;;5024184;28;20127;-65
2022/05/11 19:39:36;;;;;;;12.32;1.65;;;;;;;;;;5021471;28;20037;-65
2022/05/11 19:42:01;;;;;;;11.00;1.50;;;22.00;83.70;;;;;;5017544;28;20429;-65
2022/05/11 19:44:27;;;;;;;4.10;1.40;;;22.00;84.60;;;;;;5021469;28;20029;-66
2022/05/11 19:46:55;;;;;;;8.10;1.60;;;21.90;84.90;;;;;;5019583;28;20377;-65
2022/05/11 19:49:25;;;;;;;5.50;1.98;;;21.80;84.50;;;;;;4664900;28;9999879;-65
2022/05/11 19:51:52;;;;;;;5.68;1.42;;;21.80;84.50;;;;;;5026281;28;20390;-66
2022/05/11 19:54:18;;;;;;;1.63;1.25;;;21.80;84.50;;;;;;5018860;28;20029;-65
2022/05/11 19:56:43;;;;;;;3.45;1.25;;;21.80;85.00;;;;;;5025441;28;20040;-65
2022/05/11 19:59:10;;;;;;;7.38;1.40;;;21.80;84.70;;;;;;5013225;28;20030;-65
2022/05/11 20:01:37;;;;;;;2.92;1.50;;;21.70;85.00;;;;;;5019388;28;20501;-65
2022/05/11 20:04:04;;;;;;;6.20;1.42;;;21.70;85.00;;;;;;5012961;28;20033;-65
2022/05/11 20:06:30;;;;;;;6.82;1.52;;;21.70;85.00;;;;;;5021488;28;20500;-65
2022/05/11 20:08:57;;;;;;;6.13;1.50;;;21.60;85.60;;;;;;5019038;28;20059;-66
2022/05/11 20:11:24;;;;;;;7.40;1.77;;;21.60;85.70;;;;;;5025409;28;20030;-65
2022/05/11 20:13:50;;;;;;;5.68;1.65;;;21.50;85.70;;;;;;5023062;28;20053;-65
2022/05/11 20:16:17;;;;;;;4.90;1.60;;;21.50;85.50;;;;;;5026728;28;20044;-66
2022/05/11 20:18:45;;;;;;;4.45;1.40;;;21.50;85.70;;;;;;5023411;28;20038;-65
2022/05/11 20:21:12;;;;;;;9.63;1.30;;;21.40;85.50;;;;;;5019602;28;20045;-65
2022/05/11 20:23:42;;;;;;;7.32;1.63;;;21.40;85.30;;;;;;5023488;28;20054;-65
2022/05/11 20:26:09;;;;;;;4.28;1.42;;;21.30;85.50;;;;;;5026799;28;20036;-65
2022/05/11 20:28:35;;;;;;;6.00;1.33;;;21.30;86.10;;;;;;5008148;28;20124;-65
2022/05/11 20:36:29;;;;;;;6.30;1.45;;;21.20;86.50;;;;;;5023966;28;20044;-65
2022/05/11 20:38:57;;;;;;;7.78;1.65;;;21.10;86.70;;;;;;5023272;28;20390;-65
2022/05/11 20:41:23;;;;;;;7.50;1.38;;;21.10;86.90;;;;;;5023035;28;20037;-65
2022/05/11 20:43:48;;;;;;;2.55;1.52;;;21.00;87.10;;;;;;5023562;28;20037;-65
2022/05/11 20:46:14;;;;;;;5.90;1.38;;;21.00;87.30;;;;;;5023309;28;20027;-65
2022/05/11 20:48:40;;;;;;;12.20;1.70;;;20.90;87.20;;;;;;5021389;28;20083;-65
2022/05/11 20:51:06;;;;;;;6.88;1.52;;;20.90;87.60;;;;;;5023777;28;20366;-65
2022/05/11 20:53:31;;;;;;;3.08;1.65;;;20.80;88.10;;;;;;5022105;28;20022;-65
2022/05/11 20:55:57;;;;;;;4.35;1.50;;;20.80;89.00;;;;;;5021655;28;20112;-65
2022/05/11 20:58:22;;;;;;;10.18;1.70;;;20.80;88.50;;;;;;5019773;28;20040;-66
2022/05/11 21:00:50;;;;;;;6.20;1.48;;;20.70;88.60;;;;;;5021867;28;20124;-65
2022/05/11 21:03:16;;;;;;;4.05;1.40;;;20.80;89.00;;;;;;5021762;28;20040;-66
2022/05/11 21:05:44;;;;;;;9.30;1.50;;;20.70;89.10;;;;;;5020685;28;20029;-66
2022/05/11 21:08:11;;;;;;;3.25;1.45;;;20.70;89.80;;;;;;5017195;28;20033;-65
2022/05/11 21:10:37;;;;;;;5.50;1.33;;;20.60;90.00;;;;;;5023864;28;20129;-66
2022/05/11 21:13:03;;;;;;;8.30;1.60;;;20.60;90.00;;;;;;5021391;28;20454;-65
2022/05/11 21:15:30;;;;;;;5.60;1.52;;;20.60;90.10;;;;;;5020229;28;20401;-65
2022/05/11 21:17:55;;;;;;;5.82;1.63;;;20.50;90.20;;;;;;5021447;28;20031;-65
2022/05/11 21:20:24;;;;;;;5.03;1.40;;;20.50;90.30;;;;;;5020240;28;20033;-65
2022/05/11 21:22:50;;;;;;;4.35;1.40;;;20.50;90.50;;;;;;5022654;28;20033;-66
2022/05/11 21:25:16;;;;;;;4.03;1.50;;;20.50;90.90;;;;;;5020918;28;20045;-66
2022/05/11 21:27:42;;;;;;;4.63;1.30;;;20.40;90.90;;;;;;5020807;28;20068;-65
2022/05/11 21:30:11;;;;;;;6.13;1.73;;;20.40;91.00;;;;;;5015106;28;20022;-65
2022/05/11 21:32:36;;;;;;;3.47;1.40;;;20.40;91.10;;;;;;5014444;28;20025;-66
2022/05/11 21:35:08;;;;;;;4.85;1.50;;;20.40;91.30;;;;;;5018825;28;20504;-65
2022/05/11 21:37:33;;;;;;;5.35;1.63;;;20.30;91.40;;;;;;5021778;28;20033;-65
2022/05/11 21:39:59;;;;;;;5.63;1.60;;;20.20;91.70;;;;;;5016339;28;20099;-66
2022/05/11 21:42:24;;;;;;;4.97;1.40;;;20.20;91.90;;;;;;5020259;28;20056;-65
2022/05/11 21:44:50;;;;;;;6.03;1.45;;;20.20;92.20;;;;;;5023805;28;20033;-65
2022/05/11 21:47:16;;;;;;;5.80;1.42;;;20.10;92.50;;;;;;5021199;28;20111;-65
2022/05/11 21:49:41;;;;;;;4.88;1.70;;;20.10;92.70;;;;;;5020500;28;20017;-65
2022/05/11 21:52:10;;;;;;;6.38;1.75;;;20.00;92.80;;;;;;5022970;28;20033;-65
2022/05/11 21:54:35;;;;;;;4.50;1.67;;;20.00;93.00;;;;;;5022050;28;20018;-65
2022/05/11 21:57:01;;;;;;;2.95;1.65;;;19.90;93.40;;;;;;5019918;28;20637;-65
2022/05/11 21:59:27;;;;;;;3.15;1.50;;;19.90;93.70;;;;;;5016201;28;20049;-65
2022/05/11 22:01:52;;;;;;;4.97;1.75;;;19.90;94.20;;;;;;5019703;28;20033;-65
2022/05/11 22:04:18;;;;;;;4.35;1.42;;;19.80;94.90;;;;;;5022126;28;20120;-65
2022/05/11 22:06:44;;;;;;;3.55;1.38;;;;;;;;;;5020454;28;20017;-65
2022/05/11 22:09:10;;;;;;;5.32;1.65;;;;;;;;;;5017541;28;20104;-65
2022/05/11 22:11:37;;;;;;;5.50;1.55;;;;;;;;;;5019167;28;20121;-65
2022/05/11 22:14:05;;;;;;;5.80;1.63;;;;;;;;;;5022600;28;20033;-65
2022/05/11 22:16:31;;;;;;;4.93;1.70;;;;;;;;;;5017970;28;20037;-65
2022/05/11 22:18:57;;;;;;;4.38;1.65;;;;;;;;;;5020996;28;20037;-65
2022/05/11 22:21:23;;;;;;;6.20;1.58;;;;;;;;;;5022739;28;20025;-65
2022/05/11 22:23:49;;;;;;;3.60;1.67;;;;;;;;;;5015502;28;20157;-65
2022/05/11 22:26:15;;;;;;;5.95;1.73;;;;;;;;;;5022908;28;20171;-66
2022/05/11 22:28:41;;;;;;;8.05;1.70;;;;;;;;;;5018098;28;20018;-65
2022/05/11 22:31:07;;;;;;;10.00;1.85;;;;;;;;;;5018418;28;20026;-64
2022/05/11 22:33:34;;;;;;;2.40;1.65;;;;;;;;;;5020399;28;20514;-65
2022/05/11 22:36:01;;;;;;;4.72;1.77;;;;;;;;;;5019120;28;20025;-65
2022/05/11 22:38:29;;;;;;;7.22;2.03;;;;;;;;;;5016539;28;20021;-65
2022/05/11 22:40:56;;;;;;;6.35;1.80;;;;;;;;;;5016452;28;20437;-65
2022/05/11 22:43:22;;;;;;;4.45;1.80;;;;;;;;;;5019655;28;20042;-65
2022/05/11 22:45:48;;;;;;;5.97;1.80;;;;;;;;;;5020095;28;20021;-65
2022/05/11 22:48:14;;;;;;;5.55;1.83;;;;;;;;;;5022689;28;20033;-65
2022/05/11 22:50:42;;;;;;;5.28;2.20;;;;;;;;;;5021740;28;20025;-64
2022/05/11 22:53:08;;;;;;;5.95;1.73;;;;;;;;;;5025764;28;20044;-65
2022/05/11 22:55:34;;;;;;;5.90;1.50;;;;;;;;;;5023407;28;20409;-65
2022/05/11 22:58:01;;;;;;;6.78;1.80;;;;;;;;;;5023617;28;20033;-64
2022/05/11 23:00:29;;;;;;;7.13;1.75;;;;;;;;;;5017264;28;20346;-64
2022/05/11 23:02:56;;;;;;;4.13;1.60;;;;;;;;;;5012659;28;20018;-64
2022/05/11 23:05:22;;;;;;;6.35;2.00;;;;;;;;;;5022651;28;20421;-65
2022/05/11 23:07:49;;;;;;;7.70;1.80;;;;;;;;;;5022805;28;20409;-64
2022/05/11 23:10:16;;;;;;;6.18;1.77;;;;;;;;;;5020799;28;20034;-64
2022/05/11 23:12:42;;;;;;;7.30;1.88;;;;;;;;;;5025847;28;20031;-64
2022/05/11 23:15:09;;;;;;;4.88;1.75;;;;;;;;;;5023189;28;20017;-64
2022/05/11 23:17:36;;;;;;;4.15;2.03;;;;;;;;;;5023873;28;20037;-64
2022/05/11 23:20:03;;;;;;;2.85;1.70;;;;;;;;;;5018815;28;20033;-65
2022/05/11 23:22:29;;;;;;;5.30;1.63;;;;;;;;;;5019998;28;20184;-65
2022/05/11 23:24:55;;;;;;;3.10;1.92;;;;;;;;;;5025869;28;20075;-65
2022/05/11 23:27:21;;;;;;;4.68;2.05;;;;;;;;;;5022717;28;20048;-65
2022/05/11 23:29:47;;;;;;;4.40;1.90;;;;;;;;;;5016720;28;20029;-65
2022/05/11 23:32:13;;;;;;;3.50;1.80;;;;;;;;;;5018801;28;20220;-65
2022/05/11 23:34:39;;;;;;;2.22;1.90;;;;;;;;;;5023931;28;20474;-64
2022/05/11 23:37:05;;;;;;;3.40;1.88;;;;;;;;;;5023936;28;20084;-65
2022/05/11 23:39:31;;;;;;;6.05;2.10;;;;;;;;;;5020260;28;20041;-65
2022/05/11 23:41:57;;;;;;;6.05;2.22;;;;;;;;;;5022935;28;20847;-65
2022/05/11 23:44:23;;;;;;;5.40;2.00;;;;;;;;;;5023290;28;20060;-65
2022/05/11 23:46:49;;;;;;;6.03;1.90;;;;;;;;;;5025157;28;20108;-65
2022/05/11 23:49:15;;;;;;;8.82;2.13;;;;;;;;;;5022082;28;20038;-65
2022/05/11 23:51:41;;;;;;;3.40;1.80;;;;;;;;;;5024973;28;20033;-65
2022/05/11 23:54:07;;;;;;;5.80;2.28;;;;;;;;;;5015537;28;20034;-64
2022/05/11 23:56:33;;;;;;;5.25;2.25;;;;;;;;;;5025886;28;20152;-65
2022/05/11 23:58:59;;;;;;;2.95;1.83;;;;;;;;;;5022682;28;20124;-65
